Time;durP1;ratioP1;P1;durP2;ratioP2;P2;SDS_P1;SDS_P2;PMS_P1;PMS_P2;Temp;Humidity;BMP_temperature;BMP_pressure;BME280_temperature;BME280_humidity;BME280_pressure;Samples;Min_cycle;Max_cycle;Signal;HPM_P1;HPM_P2
2022/12/25 00:01:13;;;;;;;5.00;3.40;;;12.10;99.90;;;;;;5039311;28;20017;-67
2022/12/25 00:03:39;;;;;;;3.35;2.97;;;12.10;99.90;;;;;;5039071;28;20392;-67
2022/12/25 00:06:05;;;;;;;4.32;3.17;;;12.10;99.90;;;;;;5057100;28;20056;-67
2022/12/25 00:08:31;;;;;;;5.25;3.58;;;12.10;99.90;;;;;;5057259;28;20490;-68
2022/12/25 00:11:03;;;;;;;4.70;3.60;;;12.10;99.90;;;;;;5056941;28;20183;-68
2022/12/25 00:13:28;;;;;;;4.32;3.20;;;12.10;99.90;;;;;;5057183;28;20021;-69
2022/12/25 00:15:55;;;;;;;4.43;3.25;;;12.10;99.90;;;;;;5056944;28;20482;-70
2022/12/25 00:18:21;;;;;;;4.95;3.42;;;12.10;99.90;;;;;;5056781;28;20025;-67
2022/12/25 00:21:01;;;;;;;4.20;3.30;;;12.10;99.90;;;;;;5039044;28;20029;-69
2022/12/25 00:23:27;;;;;;;4.90;3.85;;;12.10;99.90;;;;;;5056934;28;20079;-69
2022/12/25 00:25:53;;;;;;;5.25;3.45;;;12.10;99.90;;;;;;5057225;28;20033;-67
2022/12/25 00:28:20;;;;;;;3.22;2.92;;;12.10;99.90;;;;;;5039027;28;20020;-68
2022/12/25 00:30:46;;;;;;;5.25;3.28;;;12.10;99.90;;;;;;5057143;28;20120;-68
2022/12/25 00:33:12;;;;;;;4.82;3.35;;;12.10;99.90;;;;;;5038636;28;20052;-68
2022/12/25 00:35:37;;;;;;;4.97;3.47;;;12.10;99.90;;;;;;5057277;28;20026;-68
2022/12/25 00:38:06;;;;;;;4.13;3.60;;;12.10;99.90;;;;;;5060780;28;20027;-68
2022/12/25 00:40:32;;;;;;;5.57;3.13;;;12.10;99.90;;;;;;5061048;28;20029;-70
2022/12/25 00:42:58;;;;;;;3.88;2.80;;;12.10;99.90;;;;;;5060720;28;20098;-69
2022/12/25 00:45:23;;;;;;;3.78;3.05;;;12.20;99.90;;;;;;5061051;28;20114;-69
2022/12/25 00:47:49;;;;;;;3.75;2.72;;;12.20;99.90;;;;;;5060246;28;20033;-70
2022/12/25 00:50:16;;;;;;;4.22;2.80;;;12.20;99.90;;;;;;5060718;28;20029;-69
2022/12/25 00:52:42;;;;;;;3.55;3.05;;;12.20;99.90;;;;;;5060522;28;20029;-69
2022/12/25 00:55:08;;;;;;;4.20;2.83;;;12.20;99.90;;;;;;5060593;28;20108;-69
2022/12/25 00:57:34;;;;;;;3.53;2.53;;;12.10;99.90;;;;;;5060400;28;20462;-69
2022/12/25 00:59:59;;;;;;;4.28;2.45;;;12.10;99.90;;;;;;5060558;28;20035;-68
2022/12/25 01:02:25;;;;;;;3.67;2.42;;;12.20;99.90;;;;;;5059948;28;20139;-69
2022/12/25 01:04:53;;;;;;;3.17;2.42;;;12.10;99.90;;;;;;5060557;28;20029;-69
2022/12/25 01:07:21;;;;;;;3.13;2.53;;;12.10;99.90;;;;;;5060151;28;20029;-69
2022/12/25 01:12:33;;;;;;;4.93;2.65;;;12.20;99.90;;;;;;5060368;28;20031;-69
2022/12/25 01:14:59;;;;;;;4.45;2.55;;;12.10;99.90;;;;;;5060129;28;20021;-69
2022/12/25 01:17:24;;;;;;;3.25;2.25;;;12.20;99.90;;;;;;5059638;28;20025;-69
2022/12/25 01:19:50;;;;;;;3.47;2.42;;;12.20;99.90;;;;;;5060170;28;20021;-69
2022/12/25 01:22:16;;;;;;;2.70;2.00;;;12.20;99.90;;;;;;5059952;28;20374;-69
2022/12/25 01:24:43;;;;;;;2.90;2.10;;;12.20;99.90;;;;;;5060133;28;20033;-69
2022/12/25 01:27:09;;;;;;;3.53;2.15;;;12.20;99.90;;;;;;5059883;28;20053;-69
2022/12/25 01:29:35;;;;;;;4.55;2.90;;;12.20;99.90;;;;;;5059980;28;20025;-69
2022/12/25 01:32:00;;;;;;;2.92;2.28;;;12.20;99.90;;;;;;5059647;28;20044;-69
2022/12/25 01:34:26;;;;;;;3.13;2.13;;;12.10;99.90;;;;;;5059818;28;20032;-69
2022/12/25 01:36:52;;;;;;;3.13;2.20;;;12.10;99.90;;;;;;5059562;28;20021;-70
2022/12/25 01:39:17;;;;;;;2.75;2.25;;;12.10;99.90;;;;;;5059591;28;20511;-69
2022/12/25 01:41:43;;;;;;;3.30;2.40;;;12.20;99.90;;;;;;5059455;28;20063;-69
2022/12/25 01:44:15;;;;;;;3.50;2.42;;;12.10;99.90;;;;;;5041784;28;20021;-69
2022/12/25 01:46:42;;;;;;;3.30;2.00;;;12.20;99.90;;;;;;5059217;28;20021;-69
2022/12/25 01:49:15;;;;;;;2.20;2.00;;;12.20;99.90;;;;;;5059326;28;20017;-69
2022/12/25 01:51:43;;;;;;;3.58;2.33;;;12.10;99.90;;;;;;5059590;28;20021;-69
2022/12/25 01:54:19;;;;;;;3.60;2.20;;;12.10;99.90;;;;;;5041409;28;20021;-69
2022/12/25 01:56:46;;;;;;;3.40;2.95;;;12.10;99.90;;;;;;5059510;28;20370;-69
2022/12/25 01:59:17;;;;;;;4.32;2.80;;;12.10;99.90;;;;;;5059256;28;20021;-69
2022/12/25 02:01:43;;;;;;;3.38;2.70;;;12.20;99.90;;;;;;5059280;28;20047;-69
2022/12/25 02:04:38;;;;;;;2.63;2.15;;;12.20;99.90;;;;;;5058994;28;20025;-69
2022/12/25 02:07:18;;;;;;;3.97;2.55;;;12.20;99.90;;;;;;5059402;28;20541;-69
2022/12/25 02:09:44;;;;;;;3.03;2.35;;;12.20;99.90;;;;;;5058985;28;20036;-71
2022/12/25 02:12:17;;;;;;;3.42;2.60;;;12.20;99.90;;;;;;5059027;28;20043;-69
2022/12/25 02:14:43;;;;;;;4.82;3.00;;;12.30;99.90;;;;;;5059112;28;20025;-69
2022/12/25 02:17:19;;;;;;;4.72;2.47;;;12.30;99.90;;;;;;5040663;28;20033;-69
2022/12/25 02:19:51;;;;;;;3.97;2.60;;;12.30;99.90;;;;;;5059090;28;20017;-69
2022/12/25 02:22:32;;;;;;;4.50;3.03;;;12.20;99.90;;;;;;5058848;28;20056;-69
2022/12/25 02:25:32;;;;;;;3.33;2.45;;;12.20;99.90;;;;;;5058803;28;20024;-69
2022/12/25 02:28:16;;;;;;;3.92;2.70;;;12.20;99.90;;;;;;5040896;28;20039;-69
2022/12/25 02:30:50;;;;;;;2.85;2.53;;;12.30;99.90;;;;;;5040792;28;20021;-69
2022/12/25 02:36:15;;;;;;;4.95;3.47;;;12.30;99.90;;;;;;5058512;28;20078;-69
2022/12/25 02:39:56;;;;;;;3.97;3.33;;;12.30;99.90;;;;;;5058668;28;20033;-69
2022/12/25 02:41:33;;;;;;;6.72;4.13;;;12.20;99.90;;;;;;5058347;28;20448;-69
2022/12/25 03:07:15;;;;;;;3.45;2.60;;;12.20;99.90;;;;;;5026859;28;20037;-69
2022/12/25 03:12:48;;;;;;;4.72;3.10;;;12.20;99.90;;;;;;5058431;28;20036;-69
2022/12/25 03:18:04;;;;;;;3.72;2.83;;;12.30;99.90;;;;;;5058102;28;20067;-69
2022/12/25 03:28:49;;;;;;;4.47;3.50;;;12.30;99.90;;;;;;5057815;28;20044;-69
2022/12/25 03:31:41;;;;;;;4.60;3.40;;;12.30;99.90;;;;;;5040159;28;20033;-69
2022/12/25 04:38:37;;;;;;;2.63;1.60;;;12.10;99.90;;;;;;5061108;28;20100;-69
2022/12/25 04:41:03;;;;;;;2.30;1.63;;;12.10;99.90;;;;;;5060918;28;20039;-69
2022/12/25 04:43:29;;;;;;;2.17;1.58;;;12.00;99.90;;;;;;5060594;28;20017;-69
2022/12/25 04:45:57;;;;;;;3.25;2.08;;;12.10;99.90;;;;;;5042858;28;20115;-69
2022/12/25 04:48:23;;;;;;;1.83;1.63;;;12.10;99.90;;;;;;5060300;28;20090;-70
2022/12/25 04:50:49;;;;;;;2.00;1.73;;;12.10;99.90;;;;;;5060668;28;20036;-69
2022/12/25 04:53:16;;;;;;;2.00;1.60;;;12.10;99.90;;;;;;5060601;28;20489;-69
2022/12/25 04:55:41;;;;;;;2.20;1.85;;;12.10;99.90;;;;;;5060410;28;20477;-69
2022/12/25 04:58:07;;;;;;;2.25;1.75;;;12.10;99.90;;;;;;5060648;28;20060;-69
2022/12/25 05:00:33;;;;;;;3.00;1.73;;;12.10;99.90;;;;;;5060624;28;20032;-69
2022/12/25 05:02:58;;;;;;;3.58;1.92;;;12.10;99.90;;;;;;5028683;28;20029;-69
2022/12/25 05:05:25;;;;;;;2.10;1.67;;;12.10;99.90;;;;;;5060673;28;20060;-69
2022/12/25 05:07:50;;;;;;;2.17;1.95;;;12.10;99.90;;;;;;5060459;28;20458;-69
2022/12/25 05:10:16;;;;;;;2.15;1.40;;;12.10;99.90;;;;;;5060346;28;20076;-69
2022/12/25 05:12:41;;;;;;;2.00;1.77;;;12.00;99.90;;;;;;5060284;28;20063;-69
2022/12/25 05:15:08;;;;;;;2.88;1.98;;;12.10;99.90;;;;;;5042313;28;20028;-69
2022/12/25 05:17:33;;;;;;;2.95;1.75;;;12.10;99.90;;;;;;5059941;28;20024;-69
2022/12/25 05:19:59;;;;;;;2.40;2.08;;;12.10;99.90;;;;;;5042255;28;20041;-69
2022/12/25 05:22:25;;;;;;;2.58;1.88;;;12.00;99.90;;;;;;5059239;28;20555;-69
2022/12/25 05:24:50;;;;;;;2.63;1.73;;;12.00;99.90;;;;;;5060160;28;20036;-69
2022/12/25 05:27:16;;;;;;;2.22;1.98;;;12.00;99.90;;;;;;5059905;28;20086;-69
2022/12/25 05:29:41;;;;;;;4.75;1.98;;;12.00;99.90;;;;;;5060081;28;20033;-69
2022/12/25 05:32:07;;;;;;;1.88;1.77;;;12.00;99.90;;;;;;5059440;28;20268;-69
2022/12/25 05:34:33;;;;;;;2.10;1.70;;;12.10;99.90;;;;;;5059904;28;20086;-69
2022/12/25 05:36:58;;;;;;;2.50;1.95;;;12.10;99.90;;;;;;5059629;28;20020;-67
2022/12/25 05:39:24;;;;;;;3.03;2.10;;;12.10;99.90;;;;;;5059817;28;20637;-69
2022/12/25 05:41:50;;;;;;;2.20;1.80;;;12.10;99.90;;;;;;5059636;28;20028;-69
2022/12/25 05:44:16;;;;;;;2.33;1.73;;;12.10;99.90;;;;;;5059727;28;20029;-69
2022/12/25 05:46:41;;;;;;;2.05;1.70;;;12.00;99.90;;;;;;5059382;28;20485;-69
2022/12/25 05:49:08;;;;;;;1.98;1.63;;;12.10;99.90;;;;;;5059541;28;20036;-69
2022/12/25 05:51:33;;;;;;;2.08;1.50;;;12.10;99.90;;;;;;5059583;28;20042;-69
2022/12/25 05:53:59;;;;;;;1.70;1.60;;;12.10;99.90;;;;;;5059456;28;20063;-69
2022/12/25 05:56:25;;;;;;;2.15;1.70;;;12.10;99.90;;;;;;5059277;28;20451;-69
2022/12/25 05:58:50;;;;;;;2.20;2.00;;;12.10;99.90;;;;;;5059646;28;20051;-69
2022/12/25 06:01:19;;;;;;;2.28;1.70;;;12.10;99.90;;;;;;5041161;28;20025;-69
2022/12/25 06:03:45;;;;;;;1.63;1.52;;;12.10;99.90;;;;;;5059314;28;20044;-69
2022/12/25 06:06:12;;;;;;;3.58;1.63;;;12.10;99.90;;;;;;5041363;28;20436;-69
2022/12/25 06:08:38;;;;;;;2.53;1.67;;;12.10;99.90;;;;;;5059401;28;20033;-69
2022/12/25 06:11:06;;;;;;;2.15;1.80;;;12.10;99.90;;;;;;5059087;28;20452;-69
2022/12/25 06:13:32;;;;;;;2.60;2.00;;;12.10;99.90;;;;;;5059119;28;20048;-69
2022/12/25 06:15:58;;;;;;;2.17;1.70;;;12.10;99.90;;;;;;5059201;28;20021;-69
2022/12/25 06:18:25;;;;;;;2.03;1.52;;;12.10;99.90;;;;;;5058649;28;20444;-69
2022/12/25 06:20:51;;;;;;;2.10;1.60;;;12.00;99.90;;;;;;5059262;28;20473;-69
2022/12/25 06:23:16;;;;;;;2.40;1.90;;;12.10;99.90;;;;;;5040940;28;20124;-69
2022/12/25 06:25:42;;;;;;;2.08;1.58;;;12.10;99.90;;;;;;5059116;28;20102;-69
2022/12/25 06:28:08;;;;;;;2.28;1.60;;;12.10;99.90;;;;;;5058826;28;20408;-69
2022/12/25 06:30:34;;;;;;;1.98;1.67;;;12.10;99.90;;;;;;5059096;28;20025;-69
2022/12/25 06:32:59;;;;;;;2.55;1.58;;;12.10;99.90;;;;;;5040455;28;20052;-69
2022/12/25 06:35:25;;;;;;;2.40;1.70;;;12.10;99.90;;;;;;5058648;28;20032;-69
2022/12/25 06:37:51;;;;;;;2.15;1.63;;;12.10;99.90;;;;;;5058601;28;20024;-69
2022/12/25 06:40:17;;;;;;;2.05;1.30;;;12.10;99.90;;;;;;5040728;28;20493;-69
2022/12/25 06:42:42;;;;;;;1.88;1.58;;;12.10;99.90;;;;;;5058705;28;20040;-70
2022/12/25 06:45:08;;;;;;;2.60;1.58;;;12.10;99.90;;;;;;5058586;28;20444;-69
2022/12/25 06:47:35;;;;;;;2.38;1.60;;;12.10;99.90;;;;;;5039976;28;20025;-69
2022/12/25 06:50:01;;;;;;;1.98;1.52;;;12.10;99.90;;;;;;5058516;28;20150;-69
2022/12/25 06:52:27;;;;;;;1.60;1.50;;;12.10;99.90;;;;;;5058566;28;20060;-69
2022/12/25 06:54:52;;;;;;;2.17;1.67;;;12.10;99.90;;;;;;5040415;28;20107;-69
2022/12/25 06:57:18;;;;;;;2.22;1.60;;;12.10;99.90;;;;;;5058422;28;20048;-69
2022/12/25 06:59:43;;;;;;;1.90;1.50;;;12.20;99.90;;;;;;5058336;28;20489;-69
2022/12/25 07:02:18;;;;;;;2.65;1.70;;;12.10;99.90;;;;;;5057841;28;20477;-69
2022/12/25 07:04:45;;;;;;;2.15;1.58;;;12.10;99.90;;;;;;5045982;28;20424;-69
2022/12/25 07:07:10;;;;;;;3.05;1.55;;;12.10;99.90;;;;;;5058157;28;20029;-69
2022/12/25 07:09:37;;;;;;;2.28;1.55;;;12.10;99.90;;;;;;5040159;28;20021;-69
2022/12/25 07:12:19;;;;;;;1.50;1.35;;;12.10;99.90;;;;;;5039934;28;20045;-69
2022/12/25 07:14:47;;;;;;;2.45;1.30;;;12.10;99.90;;;;;;5058136;28;20021;-69
2022/12/25 07:17:17;;;;;;;1.77;1.17;;;12.10;99.90;;;;;;5057526;28;20021;-69
2022/12/25 07:19:43;;;;;;;1.83;1.60;;;12.10;99.90;;;;;;5058203;28;20469;-69
2022/12/25 07:22:08;;;;;;;1.60;1.50;;;12.10;99.90;;;;;;5057751;28;20032;-69
2022/12/25 07:24:34;;;;;;;1.83;1.50;;;12.10;99.90;;;;;;5057901;28;20440;-69
2022/12/25 07:26:59;;;;;;;1.80;1.63;;;12.10;99.90;;;;;;5057653;28;20548;-69
2022/12/25 07:29:25;;;;;;;1.95;1.70;;;12.10;99.90;;;;;;5057937;28;20028;-69
2022/12/25 07:31:51;;;;;;;1.60;1.42;;;12.10;99.90;;;;;;5057233;28;20033;-69
2022/12/25 07:34:17;;;;;;;2.28;1.70;;;12.10;99.90;;;;;;5057643;28;20035;-69
2022/12/25 07:36:43;;;;;;;2.75;1.40;;;12.10;99.90;;;;;;5057442;28;20025;-69
2022/12/25 07:39:09;;;;;;;1.92;1.60;;;12.10;99.90;;;;;;5057701;28;20039;-69
2022/12/25 07:41:35;;;;;;;1.23;1.13;;;12.10;99.90;;;;;;5057414;28;20144;-69
2022/12/25 07:44:01;;;;;;;2.63;1.25;;;12.10;99.90;;;;;;5057355;28;20025;-69
2022/12/25 07:46:27;;;;;;;2.05;1.40;;;12.10;99.90;;;;;;5056980;28;20072;-69
2022/12/25 07:48:53;;;;;;;1.35;1.15;;;12.00;99.90;;;;;;5057588;28;20079;-69
2022/12/25 07:51:18;;;;;;;2.42;1.25;;;12.00;99.90;;;;;;5057405;28;20375;-69
2022/12/25 07:53:44;;;;;;;1.85;1.13;;;12.00;99.90;;;;;;5057475;28;20032;-69
2022/12/25 07:56:18;;;;;;;1.25;1.15;;;12.10;99.90;;;;;;5057206;28;20037;-69
2022/12/25 07:58:45;;;;;;;2.33;1.15;;;12.00;99.90;;;;;;5039508;28;20028;-69
2022/12/25 08:01:29;;;;;;;1.50;1.25;;;12.10;99.90;;;;;;5057098;28;20096;-69
2022/12/25 08:03:57;;;;;;;1.23;1.10;;;12.10;99.90;;;;;;5039116;28;20021;-69
2022/12/25 08:06:28;;;;;;;2.10;1.15;;;12.00;99.90;;;;;;5057463;28;20067;-69
2022/12/25 08:09:01;;;;;;;1.80;1.35;;;12.00;99.90;;;;;;5057182;28;20017;-69
2022/12/25 08:11:27;;;;;;;1.42;1.20;;;12.00;99.90;;;;;;5057097;28;20250;-69
2022/12/25 08:13:52;;;;;;;1.48;1.20;;;12.00;99.90;;;;;;5057099;28;20037;-69
2022/12/25 08:16:18;;;;;;;1.60;1.30;;;12.00;99.90;;;;;;5057033;28;20064;-69
2022/12/25 08:18:43;;;;;;;1.88;1.60;;;12.00;99.90;;;;;;5056888;28;20060;-69
2022/12/25 08:21:12;;;;;;;1.85;1.30;;;12.00;99.90;;;;;;5057309;28;20025;-69
2022/12/25 08:23:41;;;;;;;1.60;1.50;;;12.00;99.90;;;;;;5056888;28;20440;-69
2022/12/25 08:26:07;;;;;;;1.90;1.25;;;12.00;99.90;;;;;;5057167;28;20028;-69
2022/12/25 08:28:34;;;;;;;1.65;1.10;;;12.00;99.90;;;;;;5057074;28;20017;-69
2022/12/25 08:31:06;;;;;;;1.60;1.30;;;12.00;99.90;;;;;;5039109;28;20027;-69
2022/12/25 08:33:32;;;;;;;1.45;1.08;;;12.00;99.90;;;;;;5056552;28;20021;-69
2022/12/25 08:36:05;;;;;;;1.05;0.93;;;12.00;99.90;;;;;;5056801;28;20083;-69
2022/12/25 08:38:31;;;;;;;2.00;1.60;;;12.00;99.90;;;;;;5038884;28;20025;-69
2022/12/25 08:40:56;;;;;;;1.40;1.10;;;12.00;99.90;;;;;;5056877;28;20036;-69
2022/12/25 08:43:22;;;;;;;1.67;1.42;;;12.00;99.90;;;;;;5056700;28;20055;-69
2022/12/25 08:45:48;;;;;;;1.70;1.30;;;12.00;99.90;;;;;;5056857;28;20104;-69
2022/12/25 08:48:13;;;;;;;1.50;1.20;;;12.10;99.90;;;;;;5056496;28;20036;-69
2022/12/25 08:50:47;;;;;;;1.48;1.35;;;12.10;99.90;;;;;;5056776;28;20036;-69
2022/12/25 08:53:13;;;;;;;1.70;1.38;;;12.10;99.90;;;;;;5056903;28;20028;-69
2022/12/25 08:55:39;;;;;;;1.77;1.40;;;12.10;99.90;;;;;;5038806;28;20404;-69
2022/12/25 08:58:05;;;;;;;1.40;1.30;;;12.10;99.90;;;;;;5059710;28;20017;-69
2022/12/25 09:00:30;;;;;;;1.30;1.20;;;12.10;99.90;;;;;;5060628;28;20535;-69
2022/12/25 09:02:56;;;;;;;1.10;1.00;;;12.10;99.90;;;;;;5060165;28;20032;-69
2022/12/25 09:05:22;;;;;;;2.22;1.30;;;12.10;99.90;;;;;;5060475;28;20032;-69
2022/12/25 09:07:47;;;;;;;1.45;1.20;;;12.10;99.90;;;;;;5060424;28;20025;-69
2022/12/25 09:10:13;;;;;;;1.23;1.10;;;12.10;99.90;;;;;;5042277;28;20049;-69
2022/12/25 09:12:38;;;;;;;1.45;1.30;;;12.20;99.90;;;;;;5060332;28;20404;-69
2022/12/25 09:15:05;;;;;;;0.98;0.88;;;12.20;99.90;;;;;;5060323;28;20036;-69
2022/12/25 09:17:31;;;;;;;1.15;0.82;;;12.10;99.90;;;;;;5059843;28;20025;-69
2022/12/25 09:19:57;;;;;;;1.20;1.05;;;12.20;99.90;;;;;;5060091;28;20024;-69
2022/12/25 09:22:23;;;;;;;1.20;1.10;;;12.20;99.90;;;;;;5060194;28;20017;-69
2022/12/25 09:24:48;;;;;;;2.03;1.05;;;12.20;99.90;;;;;;5042129;28;20551;-69
2022/12/25 09:27:14;;;;;;;1.17;0.80;;;12.20;99.90;;;;;;5060047;28;20025;-69
2022/12/25 09:29:40;;;;;;;1.20;1.00;;;12.20;99.90;;;;;;5059981;28;20473;-69
2022/12/25 09:32:06;;;;;;;1.20;1.10;;;12.20;99.90;;;;;;5059701;28;20025;-69
2022/12/25 09:34:32;;;;;;;1.30;1.20;;;12.20;99.90;;;;;;5059955;28;20036;-69
2022/12/25 09:36:57;;;;;;;1.50;1.27;;;12.20;99.90;;;;;;5059726;28;20025;-69
2022/12/25 09:39:23;;;;;;;1.55;1.27;;;12.20;99.90;;;;;;5059978;28;20496;-69
2022/12/25 09:42:00;;;;;;;1.40;1.02;;;12.20;99.90;;;;;;5059768;28;20041;-69
2022/12/25 09:44:54;;;;;;;1.55;1.23;;;12.20;99.90;;;;;;5059666;28;20078;-69
2022/12/25 09:47:25;;;;;;;1.25;1.10;;;12.20;99.90;;;;;;5056663;28;20037;-69
2022/12/25 09:50:07;;;;;;;1.77;1.40;;;12.20;99.90;;;;;;5041587;28;20052;-69
2022/12/25 09:52:59;;;;;;;2.70;1.27;;;12.20;99.90;;;;;;5059630;28;20017;-69
2022/12/25 09:55:28;;;;;;;1.92;1.58;;;12.10;99.90;;;;;;5059682;28;20039;-69
2022/12/25 09:57:57;;;;;;;2.47;1.88;;;12.10;99.90;;;;;;5041475;28;20017;-69
2022/12/25 10:00:27;;;;;;;2.67;1.80;;;12.20;99.90;;;;;;5059484;28;20481;-69
2022/12/25 10:03:05;;;;;;;2.30;1.95;;;12.20;99.90;;;;;;5058767;28;20017;-69
2022/12/25 10:05:51;;;;;;;2.22;1.92;;;12.20;99.90;;;;;;5041380;28;20025;-69
2022/12/25 10:08:42;;;;;;;2.28;2.08;;;12.20;99.90;;;;;;5040972;28;20021;-69
2022/12/25 10:11:56;;;;;;;2.65;2.08;;;12.20;99.90;;;;;;5059155;28;20067;-69
2022/12/25 10:14:28;;;;;;;2.72;2.28;;;12.10;99.90;;;;;;4987874;28;20070;-69
2022/12/25 10:17:36;;;;;;;3.10;1.98;;;12.20;99.90;;;;;;5058977;28;20033;-69
2022/12/25 10:20:43;;;;;;;3.95;2.60;;;12.20;99.90;;;;;;5058145;28;20040;-69
2022/12/25 10:23:16;;;;;;;5.40;3.65;;;12.20;99.90;;;;;;5019475;28;20566;-69
2022/12/25 10:25:43;;;;;;;3.45;2.58;;;12.20;99.90;;;;;;5059060;28;20035;-69
2022/12/25 10:28:26;;;;;;;3.60;2.63;;;12.20;99.90;;;;;;5058818;28;20400;-69
2022/12/25 10:30:54;;;;;;;3.20;2.65;;;12.20;99.90;;;;;;5040905;28;20031;-69
2022/12/25 10:33:20;;;;;;;4.75;3.40;;;12.20;99.90;;;;;;5058350;28;20029;-69
2022/12/25 10:35:46;;;;;;;3.17;2.20;;;12.20;99.90;;;;;;5044598;28;20484;-69
2022/12/25 10:38:15;;;;;;;3.80;2.83;;;12.20;99.90;;;;;;5061798;28;20401;-69
2022/12/25 10:41:14;;;;;;;3.63;2.40;;;12.20;99.90;;;;;;5058778;28;20485;-70
2022/12/25 10:43:46;;;;;;;2.63;1.95;;;12.20;99.90;;;;;;5058865;28;20047;-69
2022/12/25 10:46:14;;;;;;;3.55;2.60;;;12.20;99.90;;;;;;5058600;28;20025;-69
2022/12/25 10:48:49;;;;;;;2.72;2.10;;;12.30;99.90;;;;;;5058165;28;20021;-69
2022/12/25 10:51:25;;;;;;;2.63;2.20;;;12.30;99.90;;;;;;5058391;28;20024;-70
2022/12/25 10:53:51;;;;;;;2.10;1.90;;;12.30;99.90;;;;;;5058348;28;20033;-69
2022/12/25 10:56:18;;;;;;;8.50;4.80;;;12.30;99.90;;;;;;5040151;28;20036;-69
2022/12/25 10:58:44;;;;;;;3.30;2.22;;;12.40;99.90;;;;;;5058370;28;20028;-69
2022/12/25 11:01:10;;;;;;;3.30;2.60;;;12.40;99.90;;;;;;5040108;28;20436;-69
2022/12/25 11:03:49;;;;;;;2.92;2.35;;;12.40;99.90;;;;;;5058005;28;20493;-69
2022/12/25 11:06:24;;;;;;;2.42;2.00;;;12.40;99.90;;;;;;5058167;28;20548;-69
2022/12/25 11:08:53;;;;;;;3.17;2.25;;;12.40;99.90;;;;;;5039859;28;20025;-69
2022/12/25 11:11:20;;;;;;;3.58;2.35;;;12.40;99.90;;;;;;5057930;28;20053;-69
2022/12/25 11:13:53;;;;;;;2.20;1.73;;;12.40;99.90;;;;;;5057832;28;20441;-69
2022/12/25 11:16:25;;;;;;;;;;;12.50;99.90;;;;;;5058402;28;20481;-69
2022/12/25 11:18:53;;;;;;;2.85;1.90;;;12.50;99.90;;;;;;5057446;28;19904;-69
2022/12/25 11:21:27;;;;;;;3.65;2.30;;;12.50;99.90;;;;;;5039454;28;20084;-69
2022/12/25 11:23:58;;;;;;;2.20;1.50;;;12.50;99.90;;;;;;5057753;28;20538;-69
2022/12/25 11:26:25;;;;;;;1.73;1.45;;;12.50;99.90;;;;;;5057933;28;20029;-69
2022/12/25 11:28:54;;;;;;;3.30;1.77;;;12.50;99.90;;;;;;5039650;28;20033;-69
2022/12/25 11:31:26;;;;;;;2.60;2.00;;;12.50;99.90;;;;;;5057649;28;20021;-69
2022/12/25 11:34:10;;;;;;;3.70;2.75;;;12.60;99.90;;;;;;5039662;28;20447;-69
2022/12/25 11:36:47;;;;;;;3.63;2.80;;;12.60;99.90;;;;;;5057462;28;20486;-69
2022/12/25 11:39:28;;;;;;;3.35;2.60;;;12.60;99.90;;;;;;5057535;28;20017;-69
2022/12/25 11:41:59;;;;;;;3.25;2.35;;;12.60;99.90;;;;;;5057453;28;20075;-69
2022/12/25 11:44:35;;;;;;;3.05;2.30;;;12.60;99.90;;;;;;5039531;28;20049;-69
2022/12/25 11:47:11;;;;;;;2.90;2.25;;;12.60;99.90;;;;;;5057296;28;20021;-69
2022/12/25 11:49:44;;;;;;;2.90;2.28;;;12.60;99.90;;;;;;5057549;28;20500;-69
2022/12/25 11:52:12;;;;;;;3.72;2.80;;;12.70;99.90;;;;;;5057487;28;20565;-69
2022/12/25 11:55:04;;;;;;;5.03;4.25;;;12.70;99.90;;;;;;5056998;28;20029;-69
2022/12/25 11:57:31;;;;;;;5.78;3.33;;;12.70;99.90;;;;;;5057240;28;20129;-69
2022/12/25 12:00:08;;;;;;;6.15;4.38;;;12.70;99.90;;;;;;5057400;28;20021;-69
2022/12/25 12:02:57;;;;;;;9.27;4.78;;;12.70;99.90;;;;;;5056816;28;20024;-69
2022/12/25 12:05:33;;;;;;;8.02;4.70;;;12.70;99.90;;;;;;5057078;28;20028;-69
2022/12/25 12:08:01;;;;;;;8.13;5.30;;;12.70;99.90;;;;;;5057340;28;20385;-69
2022/12/25 12:10:50;;;;;;;7.30;4.97;;;12.70;99.90;;;;;;5057237;28;20045;-69
2022/12/25 12:13:35;;;;;;;5.35;3.50;;;12.70;99.90;;;;;;5057191;28;20025;-69
2022/12/25 12:16:02;;;;;;;5.65;3.35;;;12.80;99.90;;;;;;5057243;28;20078;-69
2022/12/25 12:18:32;;;;;;;7.75;4.53;;;12.80;99.90;;;;;;5056665;28;20025;-69
2022/12/25 12:21:07;;;;;;;7.88;4.53;;;12.80;99.90;;;;;;5057349;28;20045;-69
2022/12/25 12:23:54;;;;;;;5.28;3.67;;;12.90;99.90;;;;;;5038960;28;20017;-69
2022/12/25 12:26:26;;;;;;;7.72;3.85;;;13.00;99.90;;;;;;5057036;28;20032;-69
2022/12/25 12:28:56;;;;;;;6.22;3.75;;;13.10;99.90;;;;;;5056936;28;20484;-69
2022/12/25 12:31:22;;;;;;;8.98;4.20;;;13.10;99.90;;;;;;5058473;28;20044;-69
2022/12/25 12:33:58;;;;;;;9.27;4.95;;;13.10;99.90;;;;;;5060683;28;20024;-69
2022/12/25 12:36:26;;;;;;;9.15;4.55;;;13.00;99.90;;;;;;5060764;28;20103;-69
2022/12/25 12:38:53;;;;;;;6.50;3.35;;;13.00;99.90;;;;;;5061002;28;20027;-69
2022/12/25 12:41:21;;;;;;;7.82;4.03;;;13.00;99.90;;;;;;5042948;28;20025;-69
2022/12/25 12:43:53;;;;;;;8.95;4.13;;;13.00;99.90;;;;;;5060901;28;20021;-69
2022/12/25 12:46:28;;;;;;;6.03;3.30;;;13.00;99.90;;;;;;5060655;28;20025;-69
2022/12/25 12:49:10;;;;;;;4.80;3.10;;;13.00;99.90;;;;;;5060747;28;20029;-69
2022/12/25 12:51:36;;;;;;;6.32;2.70;;;12.90;99.90;;;;;;5060254;28;20378;-69
2022/12/25 12:54:21;;;;;;;5.28;2.90;;;13.00;99.90;;;;;;5042708;28;20078;-69
2022/12/25 12:57:22;;;;;;;4.45;2.70;;;12.90;99.90;;;;;;5060693;28;20036;-69
2022/12/25 12:59:47;;;;;;;5.55;3.38;;;12.90;99.90;;;;;;5060528;28;20189;-69
2022/12/25 13:02:28;;;;;;;4.43;2.63;;;12.90;99.90;;;;;;5060068;28;20051;-69
2022/12/25 13:05:14;;;;;;;4.85;2.78;;;12.90;99.90;;;;;;5060502;28;20025;-69
2022/12/25 13:07:48;;;;;;;4.90;3.13;;;12.90;99.90;;;;;;5060335;28;20444;-69
2022/12/25 13:10:28;;;;;;;;;;;13.00;99.90;;;;;;5042905;28;20103;-69
2022/12/25 13:12:59;;;;;;;5.55;3.15;;;13.00;99.90;;;;;;5042410;28;19909;-69
2022/12/25 13:15:28;;;;;;;5.00;3.03;;;13.00;99.90;;;;;;5060193;28;20151;-69
2022/12/25 13:17:59;;;;;;;6.13;3.22;;;12.90;99.90;;;;;;5059887;28;20022;-69
2022/12/25 13:20:40;;;;;;;5.10;3.20;;;12.90;99.90;;;;;;5059869;28;20485;-69
2022/12/25 13:23:34;;;;;;;5.20;3.22;;;12.90;99.90;;;;;;5060137;28;20036;-69
2022/12/25 13:26:03;;;;;;;6.13;3.42;;;12.90;99.90;;;;;;5057352;28;20524;-69
2022/12/25 13:28:31;;;;;;;7.93;4.38;;;12.90;99.90;;;;;;5060006;28;20029;-69
2022/12/25 13:31:12;;;;;;;5.82;3.17;;;12.90;99.90;;;;;;5060058;28;20056;-69
2022/12/25 13:33:45;;;;;;;4.18;2.85;;;12.90;99.90;;;;;;5059579;28;20059;-69
2022/12/25 13:36:12;;;;;;;5.40;2.90;;;12.80;99.90;;;;;;5049218;28;20127;-69
2022/12/25 13:38:48;;;;;;;4.30;2.83;;;12.80;99.90;;;;;;5041860;28;20039;-69
2022/12/25 13:44:20;;;;;;;4.13;2.30;;;12.80;99.90;;;;;;5059271;28;20083;-69
2022/12/25 13:46:46;;;;;;;3.40;2.53;;;12.90;99.90;;;;;;5041458;28;20051;-69
2022/12/25 13:49:21;;;;;;;4.35;2.60;;;12.90;99.90;;;;;;5059656;28;20104;-70
2022/12/25 13:51:48;;;;;;;5.97;3.13;;;12.90;99.90;;;;;;5059676;28;20021;-69
2022/12/25 13:54:15;;;;;;;3.90;2.60;;;12.90;99.90;;;;;;5059578;28;20088;-69
2022/12/25 13:56:50;;;;;;;4.22;2.67;;;13.00;99.90;;;;;;5059450;28;20072;-69
2022/12/25 13:59:18;;;;;;;4.70;2.55;;;13.00;99.90;;;;;;5059469;28;20074;-69
2022/12/25 14:01:45;;;;;;;3.85;2.40;;;13.00;99.90;;;;;;5059097;28;20021;-69
2022/12/25 14:04:21;;;;;;;4.38;2.40;;;13.00;99.90;;;;;;5059289;28;20032;-69
2022/12/25 14:06:47;;;;;;;3.90;2.10;;;13.00;99.90;;;;;;5059400;28;20029;-69
2022/12/25 14:09:14;;;;;;;4.18;2.63;;;13.10;99.90;;;;;;5059119;28;20485;-69
2022/12/25 14:11:47;;;;;;;4.50;2.15;;;13.00;99.90;;;;;;5058912;28;20045;-69
2022/12/25 14:14:21;;;;;;;3.53;2.10;;;13.10;99.90;;;;;;5059098;28;20029;-69
2022/12/25 14:16:49;;;;;;;3.90;1.90;;;13.10;99.90;;;;;;5040767;28;20108;-69
2022/12/25 14:19:32;;;;;;;2.75;1.83;;;13.10;99.90;;;;;;5041239;28;20052;-69
2022/12/25 14:22:10;;;;;;;2.40;1.80;;;13.10;99.90;;;;;;5058955;28;20051;-69
2022/12/25 14:24:38;;;;;;;3.17;1.63;;;13.10;99.90;;;;;;5059129;28;20083;-69
2022/12/25 14:27:12;;;;;;;3.25;1.90;;;13.10;99.90;;;;;;5058826;28;20025;-69
2022/12/25 14:29:43;;;;;;;3.85;1.48;;;13.10;99.90;;;;;;5058927;28;20029;-70
2022/12/25 14:32:16;;;;;;;2.85;1.70;;;13.10;99.90;;;;;;5058420;28;20021;-69
2022/12/25 14:34:45;;;;;;;2.35;1.67;;;13.20;99.90;;;;;;5058414;28;20397;-69
2022/12/25 14:37:16;;;;;;;2.88;1.70;;;13.10;99.90;;;;;;5058584;28;20017;-69
2022/12/25 14:39:45;;;;;;;2.55;1.42;;;13.20;99.90;;;;;;5058751;28;20473;-69
2022/12/25 14:42:26;;;;;;;1.80;1.30;;;13.20;99.90;;;;;;5058868;28;20032;-69
2022/12/25 14:45:29;;;;;;;2.63;1.70;;;13.20;99.90;;;;;;5058579;28;20059;-69
2022/12/25 14:47:57;;;;;;;2.50;1.40;;;13.20;99.90;;;;;;5058386;28;20025;-69
2022/12/25 14:50:37;;;;;;;2.65;1.70;;;13.20;99.90;;;;;;5040642;28;20036;-69
2022/12/25 14:53:05;;;;;;;3.83;2.10;;;13.20;99.90;;;;;;5058367;28;20099;-69
2022/12/25 14:55:30;;;;;;;4.65;2.22;;;13.20;99.90;;;;;;5057531;28;20079;-69